Time;durP1;ratioP1;P1;durP2;ratioP2;P2;SDS_P1;SDS_P2;PMS_P1;PMS_P2;Temp;Humidity;BMP_temperature;BMP_pressure;BME280_temperature;BME280_humidity;BME280_pressure;Samples;Min_cycle;Max_cycle;Signal;HPM_P1;HPM_P2
2023/10/05 00:02:08;;;;;;;4.57;2.33;;;;;;;;;;5131207;27;20043;-82
2023/10/05 00:04:41;;;;;;;4.93;1.60;;;;;;;;;;5130586;27;20396;-82
2023/10/05 00:07:30;;;;;;;4.53;1.80;;;;;;;;;;5130763;27;20563;-82
2023/10/05 00:09:57;;;;;;;4.90;1.77;;;;;;;;;;5130549;27;20075;-81
2023/10/05 00:12:24;;;;;;;5.10;1.85;;;;;;;;;;5112954;27;20050;-81
2023/10/05 00:15:13;;;;;;;4.20;1.80;;;;;;;;;;5130801;27;20069;-76
2023/10/05 00:17:40;;;;;;;4.13;1.65;;;;;;;;;;5130662;27;20510;-78
2023/10/05 00:20:11;;;;;;;5.45;1.67;;;;;;;;;;5130691;27;20079;-80
2023/10/05 00:22:40;;;;;;;4.43;1.95;;;;;;;;;;5130808;27;20050;-73
2023/10/05 00:25:10;;;;;;;2.95;1.55;;;;;;;;;;5130277;27;20406;-77
2023/10/05 00:27:37;;;;;;;4.03;1.70;;;;;;;;;;5130827;27;20043;-75
2023/10/05 00:30:06;;;;;;;4.05;1.60;;;;;;;;;;5130180;27;20050;-81
2023/10/05 00:32:39;;;;;;;4.05;1.70;;;;;;;;;;5129904;27;20043;-81
2023/10/05 00:35:26;;;;;;;3.97;1.25;;;;;;;;;;5130411;27;20051;-82
2023/10/05 00:37:56;;;;;;;3.33;1.38;;;;;;;;;;5130389;27;20083;-81
2023/10/05 00:40:42;;;;;;;5.55;1.40;;;;;;;;;;5130326;27;20050;-81
2023/10/05 00:43:18;;;;;;;3.10;1.67;;;;;;;;;;5130904;27;20039;-82
2023/10/05 00:45:49;;;;;;;3.58;1.50;;;;;;;;;;5130208;27;20047;-80
2023/10/05 00:48:28;;;;;;;3.08;1.30;;;;;;;;;;5112187;27;20078;-79
2023/10/05 00:51:09;;;;;;;3.88;1.27;;;;;;;;;;5130137;27;20131;-80
2023/10/05 00:53:38;;;;;;;5.35;1.23;;;;;;;;;;5130421;28;20118;-77
2023/10/05 00:56:08;;;;;;;2.92;1.17;;;;;;;;;;5129964;27;20039;-77
2023/10/05 00:58:44;;;;;;;4.72;1.30;;;;;;;;;;5130158;28;20401;-75
2023/10/05 01:01:15;;;;;;;2.80;1.15;;;;;;;;;;5130084;28;20435;-78
2023/10/05 01:04:29;;;;;;;2.75;1.27;;;;;;;;;;5112789;28;20499;-79
2023/10/05 01:06:42;;;;;;;3.53;1.38;;;;;;;;;;5119468;27;20140;-77
2023/10/05 01:09:20;;;;;;;2.90;1.30;;;;;;;;;;5129987;28;20489;-81
2023/10/05 01:11:54;;;;;;;4.57;1.40;;;;;;;;;;5130306;28;20051;-75
2023/10/05 01:14:24;;;;;;;3.00;1.48;;;;;;;;;;5111859;28;20047;-80
2023/10/05 01:16:54;;;;;;;2.58;1.17;;;;;;;;;;5129995;27;20047;-75
2023/10/05 01:19:21;;;;;;;3.03;1.30;;;;;;;;;;5130007;28;20047;-80
2023/10/05 01:21:51;;;;;;;2.92;1.15;;;;;;;;;;5130271;28;20103;-81
2023/10/05 01:24:21;;;;;;;1.88;0.85;;;;;;;;;;5130057;28;20062;-80
2023/10/05 01:26:49;;;;;;;3.17;1.20;;;;;;;;;;5129956;27;20048;-79
2023/10/05 01:29:16;;;;;;;2.60;1.20;;;;;;;;;;5130099;28;20047;-82
2023/10/05 01:31:43;;;;;;;2.70;1.40;;;;;;;;;;5129498;28;20073;-75
2023/10/05 01:34:10;;;;;;;3.80;1.50;;;;;;;;;;5130219;28;20075;-74
2023/10/05 01:36:37;;;;;;;3.15;1.50;;;;;;;;;;5129759;28;20051;-79
2023/10/05 01:39:08;;;;;;;3.20;1.50;;;;;;;;;;5130022;28;20047;-80
2023/10/05 01:41:37;;;;;;;3.03;1.50;;;;;;;;;;5129476;28;20083;-82
2023/10/05 01:44:04;;;;;;;2.42;1.40;;;;;;;;;;5131502;27;20392;-81
2023/10/05 01:46:33;;;;;;;3.55;1.30;;;;;;;;;;5133609;27;20043;-71
2023/10/05 01:49:01;;;;;;;2.70;1.30;;;;;;;;;;5133513;27;20483;-80
2023/10/05 01:51:28;;;;;;;3.58;1.27;;;;;;;;;;5133639;27;20047;-81
2023/10/05 01:54:11;;;;;;;3.08;1.58;;;;;;;;;;5133683;27;20092;-80
2023/10/05 01:56:39;;;;;;;4.70;1.30;;;;;;;;;;5133638;27;20050;-77
2023/10/05 01:59:07;;;;;;;2.83;1.17;;;;;;;;;;5133759;27;20104;-81
2023/10/05 02:01:39;;;;;;;4.47;1.30;;;;;;;;;;5133404;27;20121;-81
2023/10/05 02:04:07;;;;;;;2.58;1.15;;;;;;;;;;5133779;27;20039;-77
2023/10/05 02:06:40;;;;;;;4.78;1.38;;;;;;;;;;5132902;27;20506;-81
2023/10/05 02:09:11;;;;;;;2.75;1.27;;;;;;;;;;5133280;27;20058;-82
2023/10/05 02:11:40;;;;;;;2.28;1.15;;;;;;;;;;5133031;27;20426;-76
2023/10/05 02:14:09;;;;;;;2.00;1.00;;;;;;;;;;5133463;27;20047;-81
2023/10/05 02:16:38;;;;;;;3.97;1.15;;;;;;;;;;5133281;27;20295;-82
2023/10/05 02:19:07;;;;;;;3.22;1.13;;;;;;;;;;5133200;27;20449;-80
2023/10/05 02:21:37;;;;;;;3.35;1.48;;;;;;;;;;5132662;27;20487;-76
2023/10/05 02:24:18;;;;;;;4.45;1.30;;;;;;;;;;5133207;27;20096;-81
2023/10/05 02:27:09;;;;;;;3.58;1.25;;;;;;;;;;5132883;27;20071;-80
2023/10/05 02:29:40;;;;;;;2.40;1.08;;;;;;;;;;5132931;27;20138;-82
2023/10/05 02:32:10;;;;;;;2.35;1.10;;;;;;;;;;5132427;27;20051;-81
2023/10/05 02:37:24;;;;;;;3.10;1.42;;;;;;;;;;5132883;27;20050;-81
2023/10/05 02:39:51;;;;;;;3.30;1.40;;;;;;;;;;5133008;27;20047;-80
2023/10/05 02:42:21;;;;;;;2.67;1.23;;;;;;;;;;5132606;27;20074;-82
2023/10/05 02:44:53;;;;;;;2.97;0.95;;;;;;;;;;5132858;27;20069;-81
2023/10/05 02:47:23;;;;;;;3.03;1.20;;;;;;;;;;5132352;27;20043;-82
2023/10/05 02:49:50;;;;;;;3.03;1.23;;;;;;;;;;5132826;27;20051;-81
2023/10/05 02:52:17;;;;;;;2.53;1.10;;;;;;;;;;5132277;27;20073;-81
2023/10/05 02:54:44;;;;;;;2.33;1.20;;;;;;;;;;5132148;27;20051;-81
2023/10/05 02:57:16;;;;;;;6.00;1.50;;;;;;;;;;5132018;27;20119;-82
2023/10/05 02:59:44;;;;;;;2.00;1.20;;;;;;;;;;5132441;27;20054;-81
2023/10/05 03:02:14;;;;;;;4.78;1.30;;;;;;;;;;5131754;27;20491;-81
2023/10/05 03:04:44;;;;;;;2.50;1.10;;;;;;;;;;5132494;27;20051;-81
2023/10/05 03:07:15;;;;;;;;;;;;;;;;;;5132722;27;20073;-73
2023/10/05 03:09:46;;;;;;;2.08;1.08;;;;;;;;;;5132403;27;19927;-82
2023/10/05 03:12:13;;;;;;;2.70;1.20;;;;;;;;;;5132036;27;20055;-81
2023/10/05 03:14:43;;;;;;;4.82;1.23;;;;;;;;;;5131829;27;20567;-81
2023/10/05 03:17:13;;;;;;;2.40;1.30;;;;;;;;;;5131926;27;20055;-80
2023/10/05 03:19:40;;;;;;;4.57;1.15;;;;;;;;;;5132148;27;20130;-82
2023/10/05 03:22:12;;;;;;;2.67;1.30;;;;;;;;;;5131732;27;20066;-82
2023/10/05 03:24:47;;;;;;;3.03;1.17;;;;;;;;;;5131754;27;20050;-82
2023/10/05 03:27:14;;;;;;;4.80;1.20;;;;;;;;;;5131504;27;20570;-76
2023/10/05 03:29:45;;;;;;;2.70;1.17;;;;;;;;;;5113302;27;20501;-82
2023/10/05 03:34:52;;;;;;;3.17;1.30;;;;;;;;;;5131864;27;20463;-80
2023/10/05 03:37:19;;;;;;;2.70;1.30;;;;;;;;;;5131564;27;20479;-81
2023/10/05 03:42:32;;;;;;;3.70;1.30;;;;;;;;;;5131439;27;20126;-82
2023/10/05 03:45:03;;;;;;;4.43;1.08;;;;;;;;;;5131457;27;20449;-82
2023/10/05 03:47:31;;;;;;;2.83;1.30;;;;;;;;;;5131379;27;20046;-79
2023/10/05 03:49:58;;;;;;;1.83;0.88;;;;;;;;;;5131603;27;20134;-79
2023/10/05 03:52:29;;;;;;;2.05;1.05;;;;;;;;;;5131232;27;20039;-81
2023/10/05 03:55:10;;;;;;;3.75;1.23;;;;;;;;;;5131075;27;20049;-81
2023/10/05 03:57:43;;;;;;;3.45;1.20;;;;;;;;;;5130845;27;20086;-81
2023/10/05 04:00:31;;;;;;;2.65;1.05;;;;;;;;;;5131387;27;20051;-81
2023/10/05 04:02:59;;;;;;;2.58;1.38;;;;;;;;;;5130830;27;20070;-80
2023/10/05 04:05:25;;;;;;;2.20;1.25;;;;;;;;;;5131115;27;20146;-75
2023/10/05 04:07:54;;;;;;;5.32;1.08;;;;;;;;;;5130637;27;20040;-81
2023/10/05 04:10:23;;;;;;;2.70;1.20;;;;;;;;;;5130756;27;20047;-80
2023/10/05 04:12:55;;;;;;;3.90;1.17;;;;;;;;;;5130321;27;20485;-79
2023/10/05 04:15:22;;;;;;;2.58;1.15;;;;;;;;;;5130943;27;20047;-80
2023/10/05 04:17:49;;;;;;;1.98;0.90;;;;;;;;;;5112434;27;20039;-80
2023/10/05 04:20:27;;;;;;;3.60;1.10;;;;;;;;;;5130839;27;20054;-81
2023/10/05 04:22:55;;;;;;;2.78;0.98;;;;;;;;;;5130599;27;20046;-68
2023/10/05 04:25:23;;;;;;;3.47;1.40;;;;;;;;;;5112464;27;20043;-71
2023/10/05 04:27:50;;;;;;;1.98;1.00;;;;;;;;;;5130713;27;20050;-76
2023/10/05 04:30:21;;;;;;;4.05;1.30;;;;;;;;;;5130271;27;20134;-71
2023/10/05 04:32:48;;;;;;;4.00;1.00;;;;;;;;;;5130068;27;20104;-77
2023/10/05 04:35:26;;;;;;;2.17;1.05;;;;;;;;;;5130629;27;20043;-80
2023/10/05 04:37:54;;;;;;;3.17;1.33;;;;;;;;;;5130453;27;20039;-80
2023/10/05 04:40:24;;;;;;;2.50;1.00;;;;;;;;;;5130390;27;20050;-81
2023/10/05 04:42:52;;;;;;;3.08;1.10;;;;;;;;;;5130256;27;20066;-79
2023/10/05 04:45:23;;;;;;;2.63;1.10;;;;;;;;;;5130611;27;20227;-78
2023/10/05 04:47:58;;;;;;;3.75;0.93;;;;;;;;;;5130379;27;20039;-80
2023/10/05 04:50:27;;;;;;;4.60;1.08;;;;;;;;;;5130695;27;20055;-82
2023/10/05 04:52:55;;;;;;;2.63;1.27;;;;;;;;;;5130060;28;20043;-81
2023/10/05 04:55:31;;;;;;;2.40;1.15;;;;;;;;;;5130420;27;20043;-81
2023/10/05 04:58:15;;;;;;;3.33;1.17;;;;;;;;;;5130196;28;20419;-81
2023/10/05 05:06:10;;;;;;;4.97;1.23;;;;;;;;;;5130403;28;20122;-72
2023/10/05 05:08:40;;;;;;;3.33;1.20;;;;;;;;;;5129964;27;20112;-75
2023/10/05 05:11:18;;;;;;;1.98;0.98;;;;;;;;;;5130526;28;20051;-72
2023/10/05 05:13:49;;;;;;;4.18;1.05;;;;;;;;;;5129995;28;20051;-81
2023/10/05 05:16:16;;;;;;;2.00;1.02;;;;;;;;;;5129951;28;20046;-77
2023/10/05 05:18:43;;;;;;;2.00;1.00;;;;;;;;;;5112446;27;20418;-74
2023/10/05 05:21:11;;;;;;;2.65;1.10;;;;;;;;;;5134195;27;20496;-81
2023/10/05 05:23:39;;;;;;;2.88;1.40;;;;;;;;;;5115652;27;20073;-78
2023/10/05 05:26:10;;;;;;;3.22;1.27;;;;;;;;;;5134091;27;20043;-80
2023/10/05 05:28:37;;;;;;;3.38;1.08;;;;;;;;;;5134006;27;20055;-72
2023/10/05 05:31:07;;;;;;;3.38;1.33;;;;;;;;;;5133964;27;20076;-79
2023/10/05 05:33:38;;;;;;;5.03;0.90;;;;;;;;;;5134100;27;20043;-82
2023/10/05 05:36:10;;;;;;;3.50;1.35;;;;;;;;;;5134416;27;20039;-81
2023/10/05 05:38:41;;;;;;;4.57;1.50;;;;;;;;;;5133533;27;20426;-81
2023/10/05 05:41:12;;;;;;;2.67;1.00;;;;;;;;;;5134218;27;20050;-77
2023/10/05 05:43:41;;;;;;;4.80;1.33;;;;;;;;;;5133492;27;20050;-71
2023/10/05 05:46:16;;;;;;;2.58;1.13;;;;;;;;;;5134061;27;20051;-75
2023/10/05 05:48:44;;;;;;;5.25;1.30;;;;;;;;;;5133450;27;20043;-82
2023/10/05 05:51:24;;;;;;;5.75;1.67;;;;;;;;;;5115486;27;20488;-80
2023/10/05 05:53:53;;;;;;;1.55;1.02;;;;;;;;;;5133176;27;20043;-82
2023/10/05 05:56:25;;;;;;;4.90;1.45;;;;;;;;;;5133767;27;20043;-81
2023/10/05 05:58:51;;;;;;;3.85;1.42;;;;;;;;;;5133422;27;20394;-82
2023/10/05 06:01:20;;;;;;;5.28;1.08;;;;;;;;;;5133409;27;20046;-80
2023/10/05 06:03:49;;;;;;;3.17;1.08;;;;;;;;;;5132983;27;20513;-82
2023/10/05 06:06:16;;;;;;;5.47;1.60;;;;;;;;;;5133837;27;20051;-82
2023/10/05 06:08:44;;;;;;;4.00;1.10;;;;;;;;;;5133466;27;20143;-81
2023/10/05 06:11:12;;;;;;;2.67;1.35;;;;;;;;;;5133763;27;20039;-82
2023/10/05 06:13:40;;;;;;;4.88;1.38;;;;;;;;;;5133408;27;20583;-78
2023/10/05 06:16:10;;;;;;;3.15;1.20;;;;;;;;;;5133646;27;20532;-83
2023/10/05 06:18:37;;;;;;;3.85;1.05;;;;;;;;;;5133575;27;20047;-83
2023/10/05 06:21:07;;;;;;;6.15;1.48;;;;;;;;;;5133253;27;20043;-83
2023/10/05 06:23:34;;;;;;;7.05;1.55;;;;;;;;;;5114829;27;20066;-82
2023/10/05 06:26:02;;;;;;;6.18;1.35;;;;;;;;;;5114906;27;20051;-82
2023/10/05 06:28:32;;;;;;;2.95;1.23;;;;;;;;;;5132951;27;20050;-82
2023/10/05 06:31:01;;;;;;;3.45;1.30;;;;;;;;;;5131741;27;20082;-82
2023/10/05 06:33:28;;;;;;;4.88;1.20;;;;;;;;;;5132382;27;20043;-83
2023/10/05 06:35:55;;;;;;;8.00;1.50;;;;;;;;;;5133040;27;20100;-82
2023/10/05 06:38:22;;;;;;;7.55;1.83;;;;;;;;;;5132783;27;20074;-80
2023/10/05 06:40:49;;;;;;;6.43;1.50;;;;;;;;;;5114760;27;20070;-81
2023/10/05 06:43:16;;;;;;;9.10;1.60;;;;;;;;;;5132458;27;20155;-81
2023/10/05 06:45:44;;;;;;;11.32;2.05;;;;;;;;;;5132748;27;20495;-81
2023/10/05 06:48:11;;;;;;;6.85;1.50;;;;;;;;;;5114198;27;20044;-83
2023/10/05 06:50:38;;;;;;;5.65;1.40;;;;;;;;;;5132578;27;20147;-82
2023/10/05 06:53:07;;;;;;;8.05;1.80;;;;;;;;;;5113911;27;20286;-83
2023/10/05 06:55:33;;;;;;;7.70;1.73;;;;;;;;;;5132788;27;20043;-83
2023/10/05 06:58:03;;;;;;;5.63;1.48;;;;;;;;;;5132246;27;20452;-83
2023/10/05 07:00:32;;;;;;;5.18;1.83;;;;;;;;;;5132389;27;20051;-83
2023/10/05 07:03:06;;;;;;;4.75;1.48;;;;;;;;;;5132417;27;20047;-84
2023/10/05 07:05:33;;;;;;;5.97;1.60;;;;;;;;;;5132242;27;20043;-82
2023/10/05 07:08:00;;;;;;;4.50;1.60;;;;;;;;;;5132304;27;20039;-79
2023/10/05 07:10:27;;;;;;;6.13;1.40;;;;;;;;;;5131985;27;20126;-78
2023/10/05 07:12:54;;;;;;;2.15;1.20;;;;;;;;;;5132176;27;20047;-81
2023/10/05 07:15:21;;;;;;;3.90;1.52;;;;;;;;;;5131698;27;20138;-81
2023/10/05 07:17:49;;;;;;;6.60;1.42;;;;;;;;;;5132206;27;20051;-82
2023/10/05 07:20:17;;;;;;;7.82;1.48;;;;;;;;;;5131715;27;20129;-80
2023/10/05 07:22:46;;;;;;;5.57;1.45;;;;;;;;;;5132041;27;20039;-82
2023/10/05 07:25:23;;;;;;;14.27;1.98;;;;;;;;;;5131644;27;20051;-76
2023/10/05 07:27:51;;;;;;;5.07;1.40;;;;;;;;;;5132011;27;20039;-81
2023/10/05 07:30:17;;;;;;;7.70;1.55;;;;;;;;;;5131529;27;20441;-78
2023/10/05 07:32:44;;;;;;;5.35;1.52;;;;;;;;;;5131502;27;20485;-81
2023/10/05 07:35:31;;;;;;;5.95;1.48;;;;;;;;;;5131867;27;20098;-82
2023/10/05 07:37:59;;;;;;;7.03;1.45;;;;;;;;;;5131984;27;20047;-81
2023/10/05 07:40:27;;;;;;;5.65;1.60;;;;;;;;;;5131650;27;20047;-80
2023/10/05 07:42:54;;;;;;;4.15;1.52;;;;;;;;;;5130900;27;20100;-80
2023/10/05 07:45:22;;;;;;;3.28;1.42;;;;;;;;;;5131072;27;20047;-81
2023/10/05 07:47:48;;;;;;;4.97;1.30;;;;;;;;;;5131235;27;20521;-81
2023/10/05 07:50:15;;;;;;;8.60;1.55;;;;;;;;;;5131578;27;20043;-81
2023/10/05 07:52:48;;;;;;;5.05;1.60;;;;;;;;;;5131147;27;20814;-77
2023/10/05 07:55:15;;;;;;;4.78;1.40;;;;;;;;;;5130389;27;20573;-80
2023/10/05 07:57:44;;;;;;;12.02;1.98;;;;;;;;;;5131294;27;20137;-81
2023/10/05 08:00:12;;;;;;;7.88;1.67;;;;;;;;;;5130949;27;20054;-77
2023/10/05 08:02:40;;;;;;;8.63;1.73;;;;;;;;;;5131093;27;20051;-80
2023/10/05 08:05:09;;;;;;;4.43;1.38;;;;;;;;;;5130607;27;20099;-75
2023/10/05 08:07:36;;;;;;;3.20;1.38;;;;;;;;;;5130988;27;20050;-81
2023/10/05 08:10:05;;;;;;;3.58;1.35;;;;;;;;;;5130485;27;20138;-75
2023/10/05 08:12:32;;;;;;;3.88;1.33;;;;;;;;;;5131017;27;20047;-80
2023/10/05 08:14:59;;;;;;;4.45;1.63;;;;;;;;;;5130669;27;20062;-80
2023/10/05 08:17:26;;;;;;;3.90;1.42;;;;;;;;;;5131074;27;20051;-79
2023/10/05 08:19:53;;;;;;;5.57;1.60;;;;;;;;;;5130416;27;20500;-79
2023/10/05 08:22:20;;;;;;;5.38;1.73;;;;;;;;;;5130913;27;20043;-82
2023/10/05 08:24:48;;;;;;;4.43;1.55;;;;;;;;;;5130589;27;20043;-80
2023/10/05 08:27:16;;;;;;;4.60;1.58;;;;;;;;;;5112702;27;20047;-72
2023/10/05 08:29:45;;;;;;;5.35;1.65;;;;;;;;;;5130560;27;20050;-81
2023/10/05 08:32:16;;;;;;;4.30;1.75;;;;;;;;;;5130627;27;20062;-82
2023/10/05 08:34:45;;;;;;;4.03;1.70;;;;;;;;;;5112156;28;20047;-78
2023/10/05 08:37:12;;;;;;;5.40;1.60;;;;;;;;;;5130519;27;20096;-74
2023/10/05 08:39:38;;;;;;;3.97;1.90;;;;;;;;;;5130354;27;20102;-82
2023/10/05 08:42:11;;;;;;;5.35;1.88;;;;;;;;;;5130639;27;20051;-81
2023/10/05 08:44:38;;;;;;;5.18;1.70;;;;;;;;;;5130220;27;20051;-76
2023/10/05 08:47:10;;;;;;;5.13;1.92;;;;;;;;;;5130237;27;20092;-81
2023/10/05 08:49:38;;;;;;;4.60;1.77;;;;;;;;;;5130191;27;20615;-80
2023/10/05 08:52:14;;;;;;;7.45;2.10;;;;;;;;;;5130619;27;20043;-74
2023/10/05 08:54:45;;;;;;;3.50;1.70;;;;;;;;;;5129334;27;20047;-81
2023/10/05 08:57:16;;;;;;;3.92;1.58;;;;;;;;;;5130049;27;20126;-79
2023/10/05 08:59:47;;;;;;;4.68;2.03;;;;;;;;;;5130321;28;20075;-79
2023/10/05 09:02:21;;;;;;;8.00;1.92;;;;;;;;;;5130226;28;20410;-80
2023/10/05 09:04:51;;;;;;;3.75;1.70;;;;;;;;;;5130440;28;20047;-76
2023/10/05 09:07:34;;;;;;;8.13;1.60;;;;;;;;;;5130186;28;20057;-81
2023/10/05 09:10:05;;;;;;;5.72;1.67;;;;;;;;;;5130220;28;20047;-68
2023/10/05 09:12:35;;;;;;;4.53;2.20;;;;;;;;;;5130163;28;20509;-71
2023/10/05 09:15:50;;;;;;;4.18;2.05;;;;;;;;;;5129865;27;20064;-80
2023/10/05 09:20:42;;;;;;;4.97;2.15;;;;;;;;;;5129829;28;20058;-82
2023/10/05 09:23:20;;;;;;;5.18;2.38;;;;;;;;;;5129928;28;20086;-82
2023/10/05 09:25:47;;;;;;;5.03;2.22;;;;;;;;;;5129935;28;20050;-82
2023/10/05 09:28:52;;;;;;;7.95;2.63;;;;;;;;;;5129939;27;20071;-81
2023/10/05 09:31:14;;;;;;;5.63;2.63;;;;;;;;;;5129281;28;20051;-76
2023/10/05 09:33:54;;;;;;;4.68;2.15;;;;;;;;;;5130061;28;20050;-80
2023/10/05 09:36:22;;;;;;;3.88;1.98;;;;;;;;;;5111293;28;20047;-79
2023/10/05 09:38:51;;;;;;;4.38;2.20;;;;;;;;;;5129745;27;20043;-81
2023/10/05 09:41:25;;;;;;;6.37;2.37;;;;;;;;;;5111986;28;20043;-79
2023/10/05 09:44:04;;;;;;;7.63;2.15;;;;;;;;;;5130005;28;20405;-75
2023/10/05 09:46:34;;;;;;;5.40;2.10;;;;;;;;;;5129907;28;20136;-80
2023/10/05 09:49:02;;;;;;;4.82;2.50;;;;;;;;;;5130219;28;20133;-82
2023/10/05 09:51:34;;;;;;;5.07;2.35;;;;;;;;;;5094789;28;20054;-80
2023/10/05 09:54:02;;;;;;;5.60;2.17;;;;;;;;;;5129956;28;20047;-77
2023/10/05 09:56:29;;;;;;;7.25;2.10;;;;;;;;;;5129811;28;20043;-81
2023/10/05 09:59:15;;;;;;;3.85;1.60;;;;;;;;;;5130175;28;20100;-82
2023/10/05 10:01:47;;;;;;;5.93;1.88;;;;;;;;;;5129683;28;20126;-82
2023/10/05 10:04:28;;;;;;;5.90;2.00;;;;;;;;;;5129940;27;20522;-81
2023/10/05 10:06:58;;;;;;;4.72;1.90;;;;;;;;;;5133162;27;20051;-82
2023/10/05 10:09:26;;;;;;;3.20;1.58;;;;;;;;;;5133257;27;20043;-79
2023/10/05 10:11:59;;;;;;;5.43;1.63;;;;;;;;;;5133114;27;20132;-78
2023/10/05 10:14:26;;;;;;;4.00;1.67;;;;;;;;;;5133365;27;20043;-78
2023/10/05 10:17:02;;;;;;;7.60;1.60;;;;;;;;;;5133143;27;20047;-82
2023/10/05 10:19:43;;;;;;;2.95;1.70;;;;;;;;;;5133139;27;20047;-79
2023/10/05 10:22:12;;;;;;;4.10;1.88;;;;;;;;;;5114605;27;20039;-81
2023/10/05 10:24:40;;;;;;;6.13;1.63;;;;;;;;;;5132238;27;20113;-81
2023/10/05 10:27:08;;;;;;;2.72;1.45;;;;;;;;;;5132712;27;20100;-81
2023/10/05 10:29:58;;;;;;;3.22;1.50;;;;;;;;;;5133166;27;20135;-81
2023/10/05 10:32:32;;;;;;;3.22;1.33;;;;;;;;;;5132869;27;20046;-81
2023/10/05 10:37:39;;;;;;;6.95;1.98;;;;;;;;;;5132537;27;20514;-81
2023/10/05 10:40:25;;;;;;;3.88;1.38;;;;;;;;;;5132683;27;20047;-78
2023/10/05 10:43:06;;;;;;;2.97;1.30;;;;;;;;;;5132409;27;20083;-80
2023/10/05 10:45:41;;;;;;;3.50;1.20;;;;;;;;;;5132701;27;20074;-81
2023/10/05 10:48:28;;;;;;;5.00;1.33;;;;;;;;;;5132594;27;20047;-77
2023/10/05 10:51:00;;;;;;;2.10;1.08;;;;;;;;;;5132602;27;20047;-81
2023/10/05 10:53:31;;;;;;;2.30;1.15;;;;;;;;;;5132528;27;20130;-81
2023/10/05 10:56:04;;;;;;;3.30;1.40;;;;;;;;;;5132619;27;20082;-81
2023/10/05 10:58:33;;;;;;;2.60;1.20;;;;;;;;;;5132152;27;20043;-80
2023/10/05 11:01:04;;;;;;;2.42;1.20;;;;;;;;;;5132260;27;20052;-80
2023/10/05 11:03:32;;;;;;;4.45;1.40;;;;;;;;;;5132640;27;20047;-80
2023/10/05 11:06:00;;;;;;;2.63;1.30;;;;;;;;;;5132388;27;20138;-81
2023/10/05 11:08:33;;;;;;;3.13;1.10;;;;;;;;;;5132149;27;20043;-80
2023/10/05 11:11:15;;;;;;;2.55;1.30;;;;;;;;;;5132164;27;20043;-81
2023/10/05 11:13:43;;;;;;;2.28;1.30;;;;;;;;;;5132084;27;20051;-81
2023/10/05 11:16:16;;;;;;;2.42;1.23;;;;;;;;;;5130764;27;20425;-79
2023/10/05 11:19:03;;;;;;;2.10;1.08;;;;;;;;;;5132149;27;20039;-81
2023/10/05 11:21:45;;;;;;;2.90;1.38;;;;;;;;;;5131621;27;20068;-80
2023/10/05 11:24:16;;;;;;;2.25;1.00;;;;;;;;;;5132056;27;20208;-81
2023/10/05 11:29:33;;;;;;;4.82;1.33;;;;;;;;;;5131699;27;20525;-78
2023/10/05 11:32:12;;;;;;;3.55;1.17;;;;;;;;;;5131559;27;20078;-81
2023/10/05 11:35:04;;;;;;;1.95;1.10;;;;;;;;;;5131558;27;20463;-79
2023/10/05 11:37:58;;;;;;;3.70;1.40;;;;;;;;;;5114761;27;20043;-81
2023/10/05 11:40:36;;;;;;;;;;;;;;;;;;5131639;27;20054;-80
2023/10/05 11:43:12;;;;;;;4.07;1.30;;;;;;;;;;5130914;27;19923;-76
2023/10/05 11:49:10;;;;;;;4.10;1.10;;;;;;;;;;5027018;28;20082;-79
2023/10/05 11:51:44;;;;;;;3.33;1.48;;;;;;;;;;5112332;27;20058;-82
2023/10/05 11:54:12;;;;;;;2.13;1.15;;;;;;;;;;5130362;27;20078;-74
2023/10/05 11:56:40;;;;;;;2.85;1.77;;;;;;;;;;5130301;27;20086;-78
2023/10/05 11:59:09;;;;;;;2.05;1.40;;;;;;;;;;5112242;27;20529;-82
2023/10/05 12:01:37;;;;;;;4.13;1.40;;;;;;;;;;5130166;27;20519;-81
2023/10/05 12:04:04;;;;;;;3.28;1.30;;;;;;;;;;5130671;27;20078;-81
2023/10/05 12:06:32;;;;;;;4.10;1.40;;;;;;;;;;5130038;27;20380;-81
2023/10/05 12:09:09;;;;;;;3.03;1.33;;;;;;;;;;5129913;27;20058;-79
2023/10/05 12:11:38;;;;;;;2.63;1.40;;;;;;;;;;5130189;27;20139;-77
2023/10/05 12:14:05;;;;;;;3.13;1.38;;;;;;;;;;5130526;27;20071;-76
2023/10/05 12:16:38;;;;;;;2.08;1.30;;;;;;;;;;5111667;27;20100;-79
2023/10/05 12:19:51;;;;;;;4.25;1.48;;;;;;;;;;5130525;27;20047;-81
2023/10/05 12:22:02;;;;;;;3.08;1.30;;;;;;;;;;5118995;27;20050;-82
2023/10/05 12:24:33;;;;;;;6.00;1.45;;;;;;;;;;5129563;27;20402;-73
2023/10/05 12:27:13;;;;;;;2.95;1.40;;;;;;;;;;5129784;27;20050;-82
2023/10/05 12:29:44;;;;;;;4.18;1.20;;;;;;;;;;5129929;27;20107;-83
2023/10/05 12:32:13;;;;;;;4.60;1.50;;;;;;;;;;5129195;27;20047;-81
2023/10/05 12:34:47;;;;;;;2.80;1.30;;;;;;;;;;5130299;27;20111;-81
2023/10/05 12:37:18;;;;;;;2.58;1.50;;;;;;;;;;5129665;27;20481;-78
2023/10/05 12:39:48;;;;;;;3.92;1.50;;;;;;;;;;5129937;27;20130;-79
2023/10/05 12:42:14;;;;;;;;;;;;;;;;;;5129939;27;20133;-80
2023/10/05 12:44:41;;;;;;;1.70;1.20;;;;;;;;;;5130066;27;19942;-79
2023/10/05 12:47:08;;;;;;;2.85;1.52;;;;;;;;;;5129798;27;20050;-80
2023/10/05 12:49:35;;;;;;;2.70;1.42;;;;;;;;;;5111877;27;20043;-79
2023/10/05 12:52:02;;;;;;;3.15;1.50;;;;;;;;;;5129313;27;20479;-80
2023/10/05 12:54:29;;;;;;;4.63;1.95;;;;;;;;;;5129326;27;20039;-82
2023/10/05 12:56:57;;;;;;;3.10;1.50;;;;;;;;;;5129614;27;20079;-79
2023/10/05 12:59:43;;;;;;;2.60;1.33;;;;;;;;;;5130034;28;20068;-82
2023/10/05 13:02:15;;;;;;;2.33;1.20;;;;;;;;;;5129014;27;20511;-81
2023/10/05 13:04:42;;;;;;;2.90;1.35;;;;;;;;;;5129485;27;20047;-74
2023/10/05 13:07:09;;;;;;;3.20;1.42;;;;;;;;;;5129663;28;20039;-82
2023/10/05 13:09:36;;;;;;;3.85;1.40;;;;;;;;;;5129517;28;20050;-81
2023/10/05 13:12:08;;;;;;;3.42;1.20;;;;;;;;;;5111090;28;20047;-83
2023/10/05 13:14:34;;;;;;;2.53;1.38;;;;;;;;;;5129526;28;20059;-82
2023/10/05 13:17:01;;;;;;;2.65;1.40;;;;;;;;;;5129805;28;20044;-83
2023/10/05 13:19:29;;;;;;;2.53;1.30;;;;;;;;;;5129452;27;20047;-83
2023/10/05 13:21:56;;;;;;;2.38;1.30;;;;;;;;;;5129549;28;20044;-83
2023/10/05 13:24:23;;;;;;;2.40;1.27;;;;;;;;;;5129150;27;20043;-82
2023/10/05 13:26:52;;;;;;;2.40;1.35;;;;;;;;;;5129499;27;20051;-81
2023/10/05 13:29:25;;;;;;;1.90;1.30;;;;;;;;;;5129173;28;20427;-81
2023/10/05 13:31:53;;;;;;;2.78;1.40;;;;;;;;;;5128919;28;20490;-82
2023/10/05 13:34:21;;;;;;;3.88;1.27;;;;;;;;;;5128878;28;20494;-82
2023/10/05 13:36:52;;;;;;;2.00;1.30;;;;;;;;;;5129575;28;20081;-79
2023/10/05 13:39:21;;;;;;;2.20;1.30;;;;;;;;;;5128967;27;20526;-81
2023/10/05 13:41:59;;;;;;;2.75;1.30;;;;;;;;;;5132944;27;20089;-76
2023/10/05 13:44:27;;;;;;;3.35;1.30;;;;;;;;;;5133256;27;20107;-81
2023/10/05 13:46:55;;;;;;;3.28;1.33;;;;;;;;;;5133279;27;20122;-82
2023/10/05 13:49:26;;;;;;;3.78;1.40;;;;;;;;;;5132874;27;20051;-82
2023/10/05 13:51:53;;;;;;;2.80;1.50;;;;;;;;;;5132809;27;20058;-82
2023/10/05 13:54:21;;;;;;;3.78;1.50;;;;;;;;;;5132703;27;20047;-77
2023/10/05 13:56:49;;;;;;;3.17;1.17;;;;;;;;;;5132844;27;20047;-81
2023/10/05 13:59:21;;;;;;;3.95;1.40;;;;;;;;;;5132634;27;20047;-79
2023/10/05 14:01:52;;;;;;;3.55;1.17;;;;;;;;;;5132922;27;20574;-82
2023/10/05 14:04:20;;;;;;;1.95;1.20;;;;;;;;;;5112390;27;20043;-82
2023/10/05 14:06:49;;;;;;;2.55;1.25;;;;;;;;;;5112182;28;20134;-80
2023/10/05 14:09:16;;;;;;;3.67;1.42;;;;;;;;;;5111750;28;20057;-77
2023/10/05 14:11:43;;;;;;;2.13;1.20;;;;;;;;;;5111745;28;20126;-81
2023/10/05 14:14:11;;;;;;;2.28;1.20;;;;;;;;;;5111612;28;20043;-70
2023/10/05 14:16:52;;;;;;;2.28;1.20;;;;;;;;;;5111744;28;20047;-75
2023/10/05 14:19:26;;;;;;;2.10;1.30;;;;;;;;;;5111726;28;20043;-68
2023/10/05 14:21:55;;;;;;;3.90;1.60;;;;;;;;;;5111945;28;20040;-82
2023/10/05 14:24:22;;;;;;;2.58;1.40;;;;;;;;;;5111359;28;20095;-80
2023/10/05 14:26:49;;;;;;;3.17;1.30;;;;;;;;;;5112157;28;20047;-71
2023/10/05 14:29:19;;;;;;;2.65;1.23;;;;;;;;;;5111840;28;20121;-77
2023/10/05 14:31:53;;;;;;;3.70;1.30;;;;;;;;;;5093423;28;20079;-82
2023/10/05 14:34:20;;;;;;;3.85;1.30;;;;;;;;;;5111066;28;20051;-80
2023/10/05 14:36:52;;;;;;;2.97;1.50;;;;;;;;;;5111587;28;20475;-80
2023/10/05 14:39:22;;;;;;;2.20;1.17;;;;;;;;;;5111007;28;20491;-75
2023/10/05 14:41:54;;;;;;;;;;;;;;;;;;5111864;28;20050;-74
2023/10/05 14:44:21;;;;;;;1.90;1.10;;;;;;;;;;5111561;28;19926;-76
2023/10/05 14:46:49;;;;;;;4.30;1.20;;;;;;;;;;5111537;28;20050;-81
2023/10/05 14:49:21;;;;;;;2.83;1.50;;;;;;;;;;5111408;28;20043;-81
2023/10/05 14:51:52;;;;;;;2.85;1.30;;;;;;;;;;5110275;28;20460;-80
2023/10/05 14:54:22;;;;;;;2.50;1.27;;;;;;;;;;5111078;28;20044;-79
2023/10/05 14:56:49;;;;;;;4.65;1.42;;;;;;;;;;5111284;28;20047;-67
2023/10/05 14:59:16;;;;;;;4.25;1.40;;;;;;;;;;5093059;28;20044;-81
2023/10/05 15:01:43;;;;;;;5.05;1.48;;;;;;;;;;5111179;28;20086;-78
2023/10/05 15:04:11;;;;;;;3.95;1.40;;;;;;;;;;5111078;28;20075;-80
2023/10/05 15:06:38;;;;;;;5.55;1.30;;;;;;;;;;5111391;28;20054;-75
2023/10/05 15:09:05;;;;;;;3.30;1.30;;;;;;;;;;5110449;28;20053;-70
2023/10/05 15:11:32;;;;;;;5.63;1.50;;;;;;;;;;5110993;28;20043;-69
2023/10/05 15:13:59;;;;;;;3.72;1.38;;;;;;;;;;5110881;28;20043;-78
2023/10/05 15:16:27;;;;;;;2.15;1.20;;;;;;;;;;5110754;28;20510;-77
2023/10/05 15:18:54;;;;;;;2.75;1.20;;;;;;;;;;5110538;28;20047;-79
2023/10/05 15:21:22;;;;;;;3.17;1.30;;;;;;;;;;5111050;28;20055;-79
2023/10/05 15:23:49;;;;;;;4.70;1.02;;;;;;;;;;5110122;28;20075;-80
2023/10/05 15:26:19;;;;;;;4.10;1.30;;;;;;;;;;5110731;28;20051;-80
2023/10/05 15:28:45;;;;;;;3.00;1.20;;;;;;;;;;5110304;28;20052;-81
2023/10/05 15:31:12;;;;;;;4.57;1.38;;;;;;;;;;5110185;28;20499;-81